createdAt,value
2023-01-25T00:00:24.776Z,10.83
2023-01-25T00:05:26.414Z,11.83
2023-01-25T00:10:28.089Z,12.20
2023-01-25T00:15:30.810Z,13.23
2023-01-25T00:20:32.410Z,13.43
2023-01-25T00:25:34.277Z,13.40
2023-01-25T00:30:35.891Z,13.93
2023-01-25T00:35:38.722Z,13.47
2023-01-25T00:40:40.349Z,13.67
2023-01-25T00:45:42.000Z,16.00
2023-01-25T00:50:44.059Z,15.50
2023-01-25T00:55:53.088Z,15.23
2023-01-25T01:00:55.948Z,14.57
2023-01-25T01:06:24.050Z,13.23
2023-01-25T01:11:27.778Z,14.10
2023-01-25T01:16:29.463Z,14.00
2023-01-25T01:21:31.300Z,14.17
2023-01-25T01:26:33.015Z,14.17
2023-01-25T01:31:34.727Z,15.17
2023-01-25T01:36:51.621Z,14.77
2023-01-25T01:41:53.894Z,15.00
2023-01-25T01:46:58.765Z,13.47
2023-01-25T01:52:10.766Z,13.90
2023-01-25T01:57:15.999Z,15.97
2023-01-25T02:02:18.477Z,14.83
2023-01-25T02:07:27.529Z,14.03
2023-01-25T02:12:29.850Z,14.20
2023-01-25T02:17:35.403Z,13.27
2023-01-25T02:22:47.685Z,14.20
2023-01-25T02:27:56.468Z,14.48
2023-01-25T02:32:58.314Z,14.48
2023-01-25T02:38:00.144Z,14.05
2023-01-25T02:43:03.260Z,13.65
2023-01-25T02:48:05.521Z,14.18
2023-01-25T02:53:07.399Z,14.07
2023-01-25T02:58:09.405Z,13.95
2023-01-25T03:03:11.523Z,14.18
2023-01-25T03:08:13.770Z,14.03
2023-01-25T03:13:16.384Z,14.93
2023-01-25T03:18:18.619Z,14.02
2023-01-25T03:23:22.303Z,15.93
2023-01-25T03:28:25.535Z,14.63
2023-01-25T03:33:29.640Z,14.15
2023-01-25T03:38:31.917Z,15.27
2023-01-25T03:43:34.071Z,15.82
2023-01-25T03:48:36.788Z,15.05
2023-01-25T03:53:39.732Z,14.15
2023-01-25T03:58:45.897Z,15.30
2023-01-25T04:03:47.968Z,15.60
2023-01-25T04:08:50.570Z,15.65
2023-01-25T04:13:53.789Z,14.60
2023-01-25T04:18:58.185Z,14.98
2023-01-25T04:24:01.595Z,14.00
2023-01-25T04:29:05.004Z,15.88
2023-01-25T04:34:08.030Z,15.93
2023-01-25T04:39:09.876Z,16.58
2023-01-25T04:44:12.762Z,17.02
2023-01-25T04:49:16.229Z,19.50
2023-01-25T04:54:18.415Z,20.03
2023-01-25T04:59:20.449Z,20.90
2023-01-25T05:04:23.061Z,18.87
2023-01-25T05:09:26.453Z,18.07
2023-01-25T05:14:29.616Z,18.27
2023-01-25T05:19:35.253Z,18.40
2023-01-25T05:24:42.993Z,18.13
2023-01-25T05:29:47.153Z,16.47
2023-01-25T05:34:50.337Z,16.95
2023-01-25T05:39:52.902Z,16.33
2023-01-25T05:44:55.389Z,15.57
2023-01-25T05:49:57.720Z,16.35
2023-01-25T05:55:15.103Z,16.43
2023-01-25T06:00:17.956Z,17.13
2023-01-25T06:05:19.834Z,18.60
2023-01-25T06:10:21.828Z,17.07
2023-01-25T06:15:25.946Z,17.73
2023-01-25T06:20:30.007Z,19.42
2023-01-25T06:25:40.783Z,18.85
2023-01-25T06:30:42.926Z,19.83
2023-01-25T06:35:44.802Z,17.88
2023-01-25T06:40:46.621Z,19.10
2023-01-25T06:45:48.409Z,16.17
2023-01-25T06:50:59.702Z,15.67
2023-01-25T06:56:04.372Z,14.80
2023-01-25T07:01:15.238Z,15.97
2023-01-25T07:06:17.990Z,14.73
2023-01-25T07:11:19.978Z,16.17
2023-01-25T07:16:21.934Z,14.50
2023-01-25T07:21:24.912Z,14.60
2023-01-25T07:26:27.181Z,15.57
2023-01-25T07:31:29.343Z,13.60
2023-01-25T07:36:31.511Z,15.90
2023-01-25T07:41:33.509Z,15.32
2023-01-25T07:46:35.334Z,14.55
2023-01-25T07:51:37.287Z,14.95
2023-01-25T07:56:40.697Z,16.08
2023-01-25T08:01:42.642Z,15.07
2023-01-25T08:06:46.619Z,15.02
2023-01-25T08:11:49.521Z,15.98
2023-01-25T08:16:51.451Z,16.80
2023-01-25T08:21:53.295Z,16.40
2023-01-25T08:26:55.100Z,15.07
2023-01-25T08:31:57.017Z,20.70
2023-01-25T08:36:58.921Z,23.75
2023-01-25T08:42:00.715Z,23.50
2023-01-25T08:47:02.499Z,25.73
2023-01-25T08:52:04.509Z,25.92
2023-01-25T08:57:06.345Z,26.75
2023-01-25T09:02:12.313Z,26.50
2023-01-25T09:07:14.145Z,24.00
2023-01-25T09:12:15.951Z,26.17
2023-01-25T09:17:17.759Z,24.75
2023-01-25T09:22:19.582Z,25.55
2023-01-25T09:27:21.403Z,23.98
2023-01-25T09:32:23.208Z,22.67
2023-01-25T09:37:27.805Z,21.75
2023-01-25T09:43:03.333Z,23.00
2023-01-25T09:48:14.175Z,21.40
2023-01-25T09:53:35.322Z,22.55
2023-01-25T09:58:44.984Z,24.05
2023-01-25T10:03:55.424Z,22.35
2023-01-25T10:09:18.800Z,18.83
2023-01-25T10:14:21.685Z,21.33
2023-01-25T10:19:36.099Z,24.40
2023-01-25T10:24:50.195Z,24.48
2023-01-25T10:29:56.968Z,24.35
2023-01-25T10:35:12.648Z,25.30
2023-01-25T10:40:30.887Z,25.13
2023-01-25T10:45:32.668Z,24.33
2023-01-25T10:50:43.983Z,20.30
2023-01-25T10:56:25.468Z,18.20
2023-01-25T11:01:32.986Z,18.52
2023-01-25T11:06:47.193Z,17.23
2023-01-25T11:11:57.804Z,17.08
2023-01-25T11:17:02.024Z,16.35
2023-01-25T11:22:24.083Z,18.00
2023-01-25T11:27:27.423Z,16.15
2023-01-25T11:32:29.475Z,17.33
2023-01-25T11:37:31.391Z,16.90
2023-01-25T11:43:10.746Z,16.55
2023-01-25T11:48:35.454Z,17.00
2023-01-25T11:54:13.633Z,18.95
2023-01-25T11:59:24.429Z,16.27
2023-01-25T12:05:12.696Z,16.63
2023-01-25T12:10:35.095Z,17.83
2023-01-25T12:15:55.085Z,17.63
2023-01-25T12:21:08.233Z,17.85
2023-01-25T12:26:27.232Z,17.48
2023-01-25T12:31:48.915Z,17.85
2023-01-25T12:36:51.478Z,18.40
2023-01-25T12:42:34.895Z,19.40
2023-01-25T12:47:46.179Z,19.25
2023-01-25T12:53:13.645Z,18.52
2023-01-25T12:58:55.343Z,27.98
2023-01-25T13:04:34.680Z,19.63
2023-01-25T13:09:36.449Z,19.30
2023-01-25T13:14:40.458Z,17.40
2023-01-25T13:19:43.299Z,18.60
2023-01-25T13:25:03.908Z,18.90
2023-01-25T13:30:30.842Z,21.70
2023-01-25T13:35:43.542Z,19.45
2023-01-25T13:40:45.785Z,21.90
2023-01-25T13:45:51.365Z,19.67
2023-01-25T13:51:04.527Z,22.33
2023-01-25T13:56:25.418Z,21.05
2023-01-25T14:01:29.334Z,21.02
2023-01-25T14:06:40.610Z,20.42
2023-01-25T14:12:02.414Z,20.27
2023-01-25T14:17:13.403Z,21.50
2023-01-25T14:22:33.815Z,21.05
2023-01-25T14:27:40.984Z,18.95
2023-01-25T14:32:42.775Z,25.27
2023-01-25T14:37:44.566Z,22.35
2023-01-25T14:42:46.949Z,23.92
2023-01-25T14:47:59.081Z,20.92
2023-01-25T14:53:25.140Z,24.20
2023-01-25T14:58:32.125Z,22.35
2023-01-25T15:03:33.960Z,21.58
2023-01-25T15:08:40.838Z,22.40
2023-01-25T15:13:42.664Z,22.08
2023-01-25T15:18:51.807Z,22.25
2023-01-25T15:23:56.024Z,25.70
2023-01-25T15:29:20.940Z,25.77
2023-01-25T15:34:35.141Z,27.85
2023-01-25T15:39:37.111Z,36.20
2023-01-25T15:44:38.916Z,29.35
2023-01-25T15:49:40.793Z,29.42
2023-01-25T15:54:51.741Z,30.05
2023-01-25T15:59:56.171Z,31.15
2023-01-25T16:04:57.986Z,45.28
2023-01-25T16:09:59.817Z,38.03
2023-01-25T16:15:01.670Z,32.35
2023-01-25T16:20:04.045Z,32.93
2023-01-25T16:25:08.899Z,34.23
2023-01-25T16:30:31.259Z,34.47
2023-01-25T16:35:33.342Z,29.67
2023-01-25T16:40:39.889Z,31.80
2023-01-25T16:45:41.854Z,37.37
2023-01-25T16:50:43.719Z,30.70
2023-01-25T16:55:45.514Z,35.53
2023-01-25T17:00:47.324Z,31.15
2023-01-25T17:05:49.094Z,30.17
2023-01-25T17:10:50.881Z,29.45
2023-01-25T17:15:56.617Z,30.42
2023-01-25T17:21:04.827Z,29.20
2023-01-25T17:26:09.686Z,30.10
2023-01-25T17:31:18.821Z,27.52
2023-01-25T17:36:21.192Z,27.95
2023-01-25T17:41:23.000Z,29.70
2023-01-25T17:46:26.481Z,30.02
2023-01-25T17:51:28.756Z,29.98
2023-01-25T17:56:30.860Z,28.08
2023-01-25T18:01:32.741Z,28.60
2023-01-25T18:06:35.125Z,27.10
2023-01-25T18:11:38.435Z,26.63
2023-01-25T18:16:41.408Z,27.13
2023-01-25T18:21:43.452Z,27.58
2023-01-25T18:26:45.273Z,29.13
2023-01-25T18:31:48.633Z,30.13
2023-01-25T18:36:53.399Z,28.73
2023-01-25T18:41:55.394Z,28.48
2023-01-25T18:46:57.435Z,28.38
2023-01-25T18:52:11.009Z,29.27
2023-01-25T18:57:14.464Z,28.48
2023-01-25T19:02:17.680Z,27.98
2023-01-25T19:07:19.587Z,30.98
2023-01-25T19:12:21.525Z,30.58
2023-01-25T19:17:23.318Z,34.03
2023-01-25T19:22:25.959Z,29.90
2023-01-25T19:27:29.455Z,35.28
2023-01-25T19:32:31.479Z,28.42
2023-01-25T19:37:33.858Z,30.73
2023-01-25T19:42:36.687Z,29.15
2023-01-25T19:47:39.141Z,30.27
2023-01-25T19:52:41.081Z,30.73
2023-01-25T19:57:43.183Z,29.40
2023-01-25T20:02:47.550Z,35.70
2023-01-25T20:07:49.477Z,31.65
2023-01-25T20:12:51.277Z,32.47
2023-01-25T20:17:53.186Z,33.38
2023-01-25T20:22:55.213Z,32.28
2023-01-25T20:27:56.996Z,30.98
2023-01-25T20:32:59.185Z,30.50
2023-01-25T20:38:01.053Z,28.63
2023-01-25T20:43:02.915Z,25.23
2023-01-25T20:48:04.945Z,24.70
2023-01-25T20:53:06.794Z,23.67
2023-01-25T20:58:08.858Z,24.35
2023-01-25T21:03:10.681Z,25.50
2023-01-25T21:08:12.589Z,25.00
2023-01-25T21:13:14.398Z,24.98
2023-01-25T21:18:16.696Z,20.70
2023-01-25T21:23:18.548Z,20.75
2023-01-25T21:28:20.380Z,20.33
2023-01-25T21:33:22.478Z,22.67
2023-01-25T21:38:25.268Z,19.98
2023-01-25T21:43:27.063Z,22.70
2023-01-25T21:48:47.345Z,21.73
2023-01-25T21:53:49.219Z,20.50
2023-01-25T21:58:51.263Z,19.70
2023-01-25T22:03:53.365Z,17.70
2023-01-25T22:08:55.247Z,18.07
2023-01-25T22:13:57.105Z,17.17
2023-01-25T22:19:00.156Z,16.52
2023-01-25T22:24:04.486Z,16.92
2023-01-25T22:29:09.470Z,20.55
2023-01-25T22:34:11.566Z,21.13
2023-01-25T22:39:14.929Z,17.77
2023-01-25T22:44:16.853Z,19.48
2023-01-25T22:49:18.724Z,17.70
2023-01-25T22:54:20.582Z,19.55
2023-01-25T22:59:22.384Z,17.73
2023-01-25T23:04:24.256Z,17.65
2023-01-25T23:09:26.111Z,19.30
2023-01-25T23:14:46.356Z,17.95
2023-01-25T23:19:48.176Z,17.67
2023-01-25T23:24:50.017Z,17.58
2023-01-25T23:29:51.948Z,16.50
2023-01-25T23:34:53.812Z,16.73
2023-01-25T23:39:55.866Z,19.20
2023-01-25T23:44:57.663Z,19.50
2023-01-25T23:49:59.447Z,19.52
2023-01-25T23:55:01.600Z,21.85
